METAR Data
IDs: Format: Raw Decoded Include TAF

Data at: 1311 UTC 15 Jul 2020

KUDG 151256Z AUTO 06004KT 10SM CLR 29/26 A3009 RMK AO2 SLP189 T02890261
KUDG 151156Z AUTO 06004KT 8SM CLR 26/26 A3008 RMK AO2 SLP186 7//// T02610256 10272 20244 51016
KUDG 151056Z AUTO 03003KT 3SM BR CLR 24/24 A3007 RMK AO2 SLP182 T02440244
KUDG 150956Z AUTO 00000KT 8SM CLR 25/25 A3005 RMK AO2 SLP176 T02500250
KUDG 150856Z AUTO 00000KT 10SM CLR 25/25 A3004 RMK AO2 SLP171 T02500250 53001
KUDG 150756Z AUTO 00000KT 10SM OVC110 26/26 A3003 RMK AO2 SLP168 T02560256
KUDG 150656Z AUTO 00000KT 10SM OVC110 27/25 A3003 RMK AO2 SLP167 T02670250
KUDG 150556Z AUTO VRB03KT 10SM FEW023 BKN090 BKN110 27/24 A3004 RMK AO2 RAE08 SLP169 P0000 6//// T02720244 10306 20261 58005
KUDG 150456Z AUTO 26006KT 10SM -RA SCT085 OVC110 27/25 A3005 RMK AO2 RAB51 SLP175 P0000 T02720250
KUDG 150356Z AUTO 00000KT 10SM SCT060 BKN110 27/25 A3005 RMK AO2 SLP176 T02720250 403440211
KUDG 150256Z AUTO 11004KT 10SM CLR 27/24 A3005 RMK AO2 RAE0159 SLP175 P0000 6//// T02720244 53019
KUDG 150156Z AUTO VRB03KT 10SM -RA SCT050 BKN095 28/25 A3003 RMK AO2 RAE06B50 SLP170 P0000 T02780250
KUDG 150056Z AUTO 00000KT 9SM -RA SCT100 29/26 A3001 RMK AO2 RAB44 SLP161 T02890256
KUDG 142356Z AUTO 14003KT 10SM OVC100 31/25 A3000 RMK AO2 LTG DSNT NE SLP156 6//// T03060250 10344 20306 53005 PNO $
KUDG 141856Z AUTO VRB03KT 10SM CLR 33/23 A2998 RMK AO2 SLP153 T03280228 PNO $
KUDG 141756Z AUTO 05005KT 10SM CLR 33/23 A3000 RMK AO2 SLP157 6//// T03330233 10333 20239 58006 PNO $
KUDG 141656Z AUTO 06004KT 10SM CLR 32/23 A3000 RMK AO2 SLP159 T03220233 PNO $
KUDG 141556Z AUTO 03005KT 10SM CLR 31/24 A3002 RMK AO2 SLP163 T03110239 PNO $
KUDG 141456Z AUTO VRB04KT 10SM CLR 31/24 A3001 RMK AO2 SLP162 6//// T03060244 51014 PNO $
KUDG 141356Z AUTO 00000KT 10SM CLR 28/24 A3001 RMK AO2 SLP160 T02830239 PNO $
KUDG 141256Z AUTO 00000KT 10SM CLR 26/23 A2999 RMK AO2 SLP154 T02610228 PNO $
KUDG 141156Z AUTO 08004KT 10SM CLR 24/23 A2997 RMK AO2 SLP149 6//// 7//// T02390228 10239 20211 51015 PNO $
KUDG 140956Z AUTO 35003KT 8SM CLR 21/21 A2995 RMK AO2 SLP140 T02110211 PNO $
KUDG 140856Z AUTO 00000KT 9SM CLR 22/22 A2993 RMK AO2 SLP134 6//// T02170217 53001 PNO $
KUDG 140756Z AUTO 08003KT 9SM CLR 22/22 A2992 RMK AO2 SLP132 T02170217 PNO $
KUDG 140656Z AUTO 09003KT 10SM CLR 22/22 A2992 RMK AO2 SLP131 T02220222 PNO $
KUDG 140556Z AUTO 00000KT 10SM CLR 22/22 A2993 RMK AO2 SLP133 6//// T02220222 10272 20222 53004 PNO $
KUDG 140456Z AUTO 02003KT 10SM CLR 23/22 A2993 RMK AO2 SLP132 T02280222 PNO $
KUDG 140356Z AUTO 00000KT 10SM CLR 23/22 A2991 RMK AO2 SLP128 T02330222 403330222 PNO $
KUDG 140256Z AUTO 24005KT 10SM CLR 24/22 A2991 RMK AO2 SLP128 6//// T02390222 50010 PNO $
KUDG 140156Z AUTO 14004KT 10SM CLR 24/23 A2992 RMK AO2 SLP129 T02440228 PNO $